Aviation Digital Data Service (ADDS)

Output produced by METARs form (1127 UTC 19 January 2018)
found at http://www.aviationweather.gov/adds/metars/
 
LHKE 191115Z 28004KT CAVOK 07/01 Q1008 TEMPO -RA RMK BLU
LHKE 191045Z 24006KT 200V270 CAVOK 07/01 Q1009 TEMPO -RA RMK BLU
LHKE 191015Z 23006KT 200V260 CAVOK 07/01 Q1008 TEMPO -RA RMK BLU
LHKE 190945Z 23004KT CAVOK 06/02 Q1009 NOSIG RMK BLU
LHKE 190915Z 20006KT 170V240 CAVOK 05/02 Q1009 NOSIG RMK BLU
LHKE 190845Z 19006KT 160V220 CAVOK 05/01 Q1008 NOSIG RMK BLU
LHKE 190815Z 17004KT CAVOK 04/02 Q1007 NOSIG RMK BLU
LHKE 190745Z 19002KT CAVOK 04/01 Q1007 NOSIG RMK BLU
LHKE 190715Z 13002KT CAVOK 03/01 Q1007 NOSIG RMK BLU
LHKE 190645Z 21002KT CAVOK 04/01 Q1007 NOSIG RMK BLU
LHKE 190615Z 23006KT 200V260 CAVOK 05/01 Q1007 NOSIG RMK BLU
LHKE 190545Z 23008KT CAVOK 05/01 Q1006 NOSIG RMK BLU